createdAt,value
2019-01-22T00:01:14.231Z,60.05
2019-01-22T00:03:45.249Z,58.38
2019-01-22T00:06:16.254Z,56.50
2019-01-22T00:08:47.307Z,57.48
2019-01-22T00:11:18.234Z,59.40
2019-01-22T00:13:49.265Z,57.50
2019-01-22T00:16:20.223Z,58.90
2019-01-22T00:18:53.063Z,58.17
2019-01-22T00:21:25.739Z,59.08
2019-01-22T00:23:56.674Z,59.05
2019-01-22T00:26:29.532Z,58.10
2019-01-22T00:29:00.529Z,55.15
2019-01-22T00:31:31.457Z,58.08
2019-01-22T00:34:02.612Z,59.13
2019-01-22T00:36:33.574Z,59.95
2019-01-22T00:39:04.917Z,57.03
2019-01-22T00:41:35.614Z,57.38
2019-01-22T00:44:06.715Z,56.42
2019-01-22T00:46:37.655Z,55.25
2019-01-22T00:49:09.571Z,55.10
2019-01-22T00:51:39.965Z,58.80
2019-01-22T00:54:10.681Z,56.23
2019-01-22T00:56:41.642Z,57.95
2019-01-22T00:59:12.738Z,59.95
2019-01-22T01:01:43.753Z,59.40
2019-01-22T01:04:14.723Z,57.90
2019-01-22T01:06:47.688Z,61.28
2019-01-22T01:09:18.714Z,60.67
2019-01-22T01:11:49.746Z,61.02
2019-01-22T01:14:21.739Z,60.05
2019-01-22T01:16:52.873Z,59.18
2019-01-22T01:19:25.958Z,61.63
2019-01-22T01:21:56.802Z,61.15
2019-01-22T01:24:27.753Z,61.60
2019-01-22T01:27:00.003Z,57.75
2019-01-22T01:29:32.805Z,59.88
2019-01-22T01:32:03.359Z,59.55
2019-01-22T01:34:33.845Z,58.48
2019-01-22T01:37:04.211Z,59.03
2019-01-22T01:39:36.556Z,59.63
2019-01-22T01:42:06.935Z,59.20
2019-01-22T01:44:37.822Z,59.48
2019-01-22T01:47:09.409Z,58.30
2019-01-22T01:49:39.944Z,59.50
2019-01-22T01:52:10.478Z,61.18
2019-01-22T01:54:41.972Z,61.50
2019-01-22T01:57:12.902Z,58.50
2019-01-22T01:59:44.246Z,59.67
2019-01-22T02:02:14.986Z,59.18
2019-01-22T02:04:45.967Z,58.83
2019-01-22T02:07:16.925Z,60.35
2019-01-22T02:09:47.856Z,60.65
2019-01-22T02:12:22.926Z,59.53
2019-01-22T02:15:00.874Z,59.98
2019-01-22T02:18:23.062Z,58.35
2019-01-22T02:21:34.184Z,54.65
2019-01-22T02:24:41.743Z,59.18
2019-01-22T02:27:44.694Z,63.13
2019-01-22T02:30:36.654Z,60.45
2019-01-22T02:33:43.533Z,58.78
2019-01-22T02:37:01.535Z,57.05
2019-01-22T02:40:02.577Z,65.37
2019-01-22T02:43:05.326Z,61.28
2019-01-22T02:46:16.857Z,60.20
2019-01-22T02:49:24.595Z,61.90
2019-01-22T02:52:45.683Z,61.50
2019-01-22T02:55:25.811Z,63.08
2019-01-22T02:58:34.347Z,60.43
2019-01-22T03:01:43.432Z,63.63
2019-01-22T03:04:45.620Z,63.42
2019-01-22T03:07:32.643Z,60.78
2019-01-22T03:10:50.725Z,62.75
2019-01-22T03:14:13.084Z,61.15
2019-01-22T03:17:28.678Z,60.58
2019-01-22T03:20:25.889Z,61.53
2019-01-22T03:24:05.223Z,62.78
2019-01-22T03:27:14.155Z,62.75
2019-01-22T03:30:25.422Z,60.92
2019-01-22T03:33:51.448Z,62.38
2019-01-22T03:37:06.130Z,65.75
2019-01-22T03:39:57.653Z,66.10
2019-01-22T03:42:48.307Z,66.28
2019-01-22T03:45:56.803Z,67.10
2019-01-22T03:48:49.039Z,68.35
2019-01-22T03:51:44.620Z,72.50
2019-01-22T03:54:43.685Z,71.92
2019-01-22T03:57:37.552Z,74.07
2019-01-22T04:00:16.590Z,73.20
2019-01-22T04:02:48.544Z,73.02
2019-01-22T04:05:19.548Z,75.03
2019-01-22T04:07:50.512Z,74.17
2019-01-22T04:10:37.844Z,78.33
2019-01-22T04:13:10.686Z,74.12
2019-01-22T04:15:43.131Z,76.15
2019-01-22T04:18:15.579Z,78.10
2019-01-22T04:20:48.624Z,73.95
2019-01-22T04:23:45.304Z,75.22
2019-01-22T04:26:40.120Z,73.12
2019-01-22T04:29:28.644Z,73.72
2019-01-22T04:32:30.152Z,70.72
2019-01-22T04:35:48.208Z,73.92
2019-01-22T04:39:16.134Z,71.77
2019-01-22T04:42:44.042Z,75.17
2019-01-22T04:46:11.961Z,76.82
2019-01-22T04:49:40.040Z,79.32
2019-01-22T04:52:52.687Z,75.45
2019-01-22T04:56:01.805Z,70.85
2019-01-22T04:59:29.681Z,74.60
2019-01-22T05:02:57.626Z,75.40
2019-01-22T05:09:15.923Z,78.50
2019-01-22T05:12:43.796Z,75.32
2019-01-22T05:16:11.677Z,74.53
2019-01-22T05:19:19.177Z,76.90
2019-01-22T05:22:47.186Z,78.60
2019-01-22T05:25:41.305Z,75.78
2019-01-22T05:29:09.188Z,80.03
2019-01-22T05:32:37.053Z,76.60
2019-01-22T05:35:52.746Z,78.40
2019-01-22T05:42:24.477Z,84.40
2019-01-22T05:45:40.143Z,75.80
2019-01-22T05:48:55.629Z,80.53
2019-01-22T05:52:04.167Z,80.45
2019-01-22T05:55:21.429Z,80.62
2019-01-22T05:58:49.298Z,78.12
2019-01-22T06:01:30.718Z,85.03
2019-01-22T06:04:58.681Z,85.85
2019-01-22T06:08:10.954Z,83.58
2019-01-22T06:11:07.323Z,84.87
2019-01-22T06:14:35.184Z,78.97
2019-01-22T06:18:03.174Z,79.60
2019-01-22T06:21:25.527Z,73.33
2019-01-22T06:24:35.647Z,77.97
2019-01-22T06:27:32.472Z,75.40
2019-01-22T06:30:41.869Z,73.70
2019-01-22T06:34:09.789Z,76.55
2019-01-22T06:37:38.793Z,70.65
2019-01-22T06:40:50.978Z,74.30
2019-01-22T06:44:07.462Z,73.78
2019-01-22T06:47:35.326Z,70.28
2019-01-22T06:50:43.992Z,67.90
2019-01-22T06:53:55.724Z,69.58
2019-01-22T06:56:59.486Z,68.80
2019-01-22T07:00:27.443Z,67.92
2019-01-22T07:03:55.352Z,68.00
2019-01-22T07:07:23.220Z,66.20
2019-01-22T07:10:51.088Z,72.03
2019-01-22T07:14:19.050Z,67.32
2019-01-22T07:17:27.609Z,63.15
2019-01-22T07:20:55.474Z,67.40
2019-01-22T07:24:23.400Z,70.67
2019-01-22T07:27:39.376Z,66.57
2019-01-22T07:31:07.721Z,74.65
2019-01-22T07:34:16.241Z,66.72
2019-01-22T07:37:44.175Z,67.22
2019-01-22T07:40:52.642Z,66.90
2019-01-22T07:44:20.547Z,65.70
2019-01-22T07:47:48.518Z,63.15
2019-01-22T07:51:16.420Z,61.98
2019-01-22T07:54:44.276Z,60.43
2019-01-22T07:58:12.190Z,65.00
2019-01-22T08:01:40.119Z,63.40
2019-01-22T08:05:26.939Z,59.05
2019-01-22T08:08:56.631Z,62.65
2019-01-22T08:12:08.386Z,66.57
2019-01-22T08:15:18.523Z,63.55
2019-01-22T08:18:46.559Z,61.90
2019-01-22T08:22:14.405Z,63.95
2019-01-22T08:25:42.301Z,64.30
2019-01-22T08:28:50.648Z,65.17
2019-01-22T08:32:18.561Z,65.78
2019-01-22T08:35:46.416Z,64.77
2019-01-22T08:38:58.364Z,65.22
2019-01-22T08:42:26.235Z,66.05
2019-01-22T08:45:39.334Z,67.20
2019-01-22T08:49:07.200Z,67.47
2019-01-22T08:52:15.671Z,67.87
2019-01-22T08:55:31.963Z,68.47
2019-01-22T08:58:52.091Z,63.48
2019-01-22T09:02:19.951Z,64.97
2019-01-22T09:05:47.821Z,62.95
2019-01-22T09:09:15.926Z,65.35
2019-01-22T09:12:43.911Z,61.60
2019-01-22T09:16:11.812Z,65.12
2019-01-22T09:19:39.679Z,64.72
2019-01-22T09:23:07.541Z,60.98
2019-01-22T09:26:35.462Z,61.50
2019-01-22T09:29:35.676Z,59.63
2019-01-22T09:32:34.050Z,65.50
2019-01-22T09:35:42.650Z,63.63
2019-01-22T09:38:32.466Z,62.45
2019-01-22T09:41:22.328Z,63.30
2019-01-22T09:44:12.187Z,65.92
2019-01-22T09:47:02.037Z,66.20
2019-01-22T09:49:51.847Z,65.65
2019-01-22T09:52:41.768Z,64.45
2019-01-22T09:55:31.648Z,64.45
2019-01-22T09:58:22.418Z,66.12
2019-01-22T10:01:12.546Z,68.87
2019-01-22T10:04:03.657Z,64.92
2019-01-22T10:06:45.339Z,65.30
2019-01-22T10:09:35.155Z,66.40
2019-01-22T10:12:25.004Z,65.65
2019-01-22T10:18:20.310Z,68.12
2019-01-22T10:21:10.121Z,69.58
2019-01-22T10:23:59.929Z,69.60
2019-01-22T10:26:49.714Z,69.60
2019-01-22T10:29:39.507Z,72.10
2019-01-22T10:32:48.336Z,68.35
2019-01-22T10:35:38.348Z,69.45
2019-01-22T10:38:28.197Z,73.25
2019-01-22T10:41:18.275Z,67.42
2019-01-22T10:44:08.387Z,72.58
2019-01-22T10:46:45.136Z,76.22
2019-01-22T10:49:34.992Z,72.22
2019-01-22T10:52:24.851Z,74.67
2019-01-22T10:58:17.364Z,73.80
2019-01-22T11:01:07.190Z,76.75
2019-01-22T11:03:57.033Z,75.85
2019-01-22T11:06:46.879Z,72.55
2019-01-22T11:09:36.737Z,74.72
2019-01-22T11:12:26.630Z,74.53
2019-01-22T11:15:16.623Z,79.92
2019-01-22T11:18:07.254Z,77.08
2019-01-22T11:20:57.124Z,77.58
2019-01-22T11:23:47.055Z,76.92
2019-01-22T11:26:36.931Z,78.30
2019-01-22T11:29:07.349Z,76.67
2019-01-22T11:31:57.231Z,75.65
2019-01-22T11:34:47.106Z,77.60
2019-01-22T11:37:36.906Z,77.10
2019-01-22T11:40:46.694Z,77.87
2019-01-22T11:43:36.511Z,77.12
2019-01-22T11:46:26.418Z,84.60
2019-01-22T11:49:16.301Z,80.85
2019-01-22T11:55:27.289Z,80.05
2019-01-22T11:58:17.111Z,80.80
2019-01-22T12:01:07.090Z,84.40
2019-01-22T12:03:37.613Z,84.70
2019-01-22T12:06:27.492Z,81.05
2019-01-22T12:09:17.308Z,78.57
2019-01-22T12:12:07.238Z,73.42
2019-01-22T12:14:57.078Z,80.22
2019-01-22T12:17:27.652Z,72.92
2019-01-22T12:20:20.435Z,74.70
2019-01-22T12:23:10.315Z,71.60
2019-01-22T12:26:00.134Z,74.10
2019-01-22T12:28:30.926Z,71.60
2019-01-22T12:31:20.804Z,75.35
2019-01-22T12:34:10.722Z,75.60
2019-01-22T12:37:00.942Z,79.97
2019-01-22T12:39:50.793Z,75.08
2019-01-22T12:42:40.599Z,80.60
2019-01-22T12:48:23.716Z,76.35
2019-01-22T12:51:13.536Z,80.28
2019-01-22T12:54:03.353Z,75.92
2019-01-22T12:56:33.903Z,75.03
2019-01-22T12:59:04.330Z,78.02
2019-01-22T13:01:54.137Z,81.12
2019-01-22T13:04:43.923Z,74.58
2019-01-22T13:07:14.402Z,77.20
2019-01-22T13:09:44.912Z,77.70
2019-01-22T13:12:34.715Z,76.33
2019-01-22T13:18:30.513Z,71.07
2019-01-22T13:21:20.318Z,73.62
2019-01-22T13:23:50.699Z,76.60
2019-01-22T13:26:21.080Z,73.00
2019-01-22T13:29:10.906Z,77.60
2019-01-22T13:32:00.647Z,72.10
2019-01-22T13:34:50.525Z,77.20
2019-01-22T13:37:40.296Z,76.85
2019-01-22T13:40:30.347Z,73.37
2019-01-22T13:43:20.149Z,72.55
2019-01-22T13:46:10.003Z,75.47
2019-01-22T13:48:59.826Z,74.53
2019-01-22T13:51:49.645Z,74.37
2019-01-22T13:54:39.459Z,81.87
2019-01-22T13:57:29.286Z,71.87
2019-01-22T14:00:20.952Z,73.15
2019-01-22T14:03:10.826Z,70.57
2019-01-22T14:06:00.622Z,69.22
2019-01-22T14:08:50.452Z,69.37
2019-01-22T14:11:40.289Z,72.75
2019-01-22T14:14:30.161Z,68.15
2019-01-22T14:17:00.562Z,73.72
2019-01-22T14:19:50.358Z,73.67
2019-01-22T14:22:40.241Z,70.03
2019-01-22T14:25:30.114Z,69.30
2019-01-22T14:28:00.554Z,68.78
2019-01-22T14:30:50.338Z,71.92
2019-01-22T14:33:40.135Z,68.97
2019-01-22T14:36:29.918Z,64.12
2019-01-22T14:39:26.482Z,66.95
2019-01-22T14:42:11.524Z,67.95
2019-01-22T14:45:01.357Z,69.77
2019-01-22T14:47:51.302Z,66.22
2019-01-22T14:50:41.222Z,69.22
2019-01-22T14:53:30.998Z,66.45
2019-01-22T14:56:20.938Z,70.25
2019-01-22T14:58:51.384Z,70.97
2019-01-22T15:01:41.277Z,69.90
2019-01-22T15:04:31.083Z,70.00
2019-01-22T15:07:01.563Z,71.67
2019-01-22T15:09:51.335Z,75.75
2019-01-22T15:12:21.792Z,74.27
2019-01-22T15:15:12.899Z,68.10
2019-01-22T15:17:43.464Z,67.42
2019-01-22T15:20:33.460Z,69.77
2019-01-22T15:23:23.312Z,68.52
2019-01-22T15:26:13.119Z,128.80
2019-01-22T15:29:03.003Z,62.43
2019-01-22T15:31:33.549Z,61.95
2019-01-22T15:34:23.411Z,66.53
2019-01-22T15:37:00.110Z,58.10
2019-01-22T15:39:30.634Z,57.17
2019-01-22T15:42:20.459Z,57.27
2019-01-22T15:45:10.388Z,56.63
2019-01-22T15:48:00.257Z,58.85
2019-01-22T15:50:51.941Z,61.25
2019-01-22T15:53:41.733Z,54.95
2019-01-22T15:56:31.573Z,55.83
2019-01-22T15:59:21.427Z,58.35
2019-01-22T16:01:53.730Z,54.23
2019-01-22T16:04:43.551Z,56.00
2019-01-22T16:07:33.383Z,55.70
2019-01-22T16:10:04.397Z,51.37
2019-01-22T16:12:54.260Z,52.20
2019-01-22T16:15:44.062Z,49.93
2019-01-22T16:18:33.908Z,52.05
2019-01-22T16:21:04.745Z,51.92
2019-01-22T16:23:54.556Z,54.30
2019-01-22T16:26:44.396Z,51.45
2019-01-22T16:29:34.247Z,52.27
2019-01-22T16:32:04.785Z,53.10
2019-01-22T16:34:54.577Z,54.15
2019-01-22T16:37:44.396Z,53.02
2019-01-22T16:40:34.448Z,52.53
2019-01-22T16:43:24.098Z,53.25
2019-01-22T16:45:54.492Z,54.83
2019-01-22T16:48:24.925Z,60.08
2019-01-22T16:51:14.776Z,56.08
2019-01-22T16:54:04.824Z,57.67
2019-01-22T16:57:00.458Z,56.28
2019-01-22T16:59:37.091Z,57.38
2019-01-22T17:02:27.021Z,60.10
2019-01-22T17:05:17.085Z,56.65
2019-01-22T17:07:47.488Z,57.85
2019-01-22T17:10:18.690Z,59.23
2019-01-22T17:12:49.185Z,57.30
2019-01-22T17:16:18.408Z,57.67
2019-01-22T17:19:08.369Z,57.98
2019-01-22T17:21:38.810Z,59.42
2019-01-22T17:24:28.605Z,60.48
2019-01-22T17:27:18.454Z,59.45
2019-01-22T17:30:11.253Z,57.55
2019-01-22T17:33:00.623Z,56.65
2019-01-22T17:38:15.812Z,56.15
2019-01-22T17:41:05.714Z,54.90
2019-01-22T17:43:36.167Z,58.90
2019-01-22T17:46:25.946Z,57.60
2019-01-22T17:49:15.770Z,59.10
2019-01-22T17:51:46.339Z,54.93
2019-01-22T17:54:36.189Z,58.80
2019-01-22T17:57:25.968Z,60.20
2019-01-22T18:03:14.910Z,59.42
2019-01-22T18:06:05.080Z,57.05
2019-01-22T18:08:54.917Z,57.60
2019-01-22T18:11:44.747Z,57.45
2019-01-22T18:14:34.588Z,58.78
2019-01-22T18:17:05.297Z,54.93
2019-01-22T18:19:55.222Z,55.60
2019-01-22T18:22:26.395Z,55.40
2019-01-22T18:25:16.824Z,53.33
2019-01-22T18:27:47.239Z,52.67
2019-01-22T18:30:37.047Z,50.78
2019-01-22T18:33:26.897Z,51.30
2019-01-22T18:36:16.844Z,49.93
2019-01-22T18:39:08.429Z,50.05
2019-01-22T18:41:58.222Z,48.28
2019-01-22T18:44:48.083Z,48.78
2019-01-22T18:47:38.210Z,47.73
2019-01-22T18:50:28.015Z,43.02
2019-01-22T18:53:17.791Z,42.15
2019-01-22T18:56:07.633Z,42.95
2019-01-22T18:58:57.434Z,42.85
2019-01-22T19:01:47.300Z,44.08
2019-01-22T19:04:37.091Z,39.90
2019-01-22T19:07:26.904Z,40.78
2019-01-22T19:10:35.752Z,40.60
2019-01-22T19:13:25.605Z,41.33
2019-01-22T19:16:15.457Z,35.10
2019-01-22T19:18:45.926Z,34.65
2019-01-22T19:21:35.860Z,33.40
2019-01-22T19:24:25.911Z,38.15
2019-01-22T19:27:15.755Z,36.40
2019-01-22T19:30:08.271Z,39.03
2019-01-22T19:32:38.712Z,36.58
2019-01-22T19:35:28.582Z,39.80
2019-01-22T19:37:59.042Z,38.48
2019-01-22T19:40:48.834Z,36.38
2019-01-22T19:43:38.646Z,38.78
2019-01-22T19:46:28.530Z,41.20
2019-01-22T19:49:18.375Z,40.95
2019-01-22T19:51:48.812Z,41.92
2019-01-22T19:54:19.643Z,42.10
2019-01-22T19:57:09.460Z,40.23
2019-01-22T19:59:39.853Z,40.33
2019-01-22T20:02:29.679Z,39.92
2019-01-22T20:05:19.597Z,40.60
2019-01-22T20:08:09.747Z,41.13
2019-01-22T20:10:59.549Z,42.67
2019-01-22T20:13:49.341Z,38.65
2019-01-22T20:16:39.216Z,41.00
2019-01-22T20:19:29.142Z,39.70
2019-01-22T20:21:59.899Z,40.50
2019-01-22T20:24:49.729Z,39.85
2019-01-22T20:27:39.571Z,38.45
2019-01-22T20:30:31.797Z,39.18
2019-01-22T20:33:21.720Z,38.40
2019-01-22T20:36:11.543Z,37.90
2019-01-22T20:38:43.571Z,36.83
2019-01-22T20:41:33.381Z,37.95
2019-01-22T20:44:23.222Z,37.00
2019-01-22T20:46:53.974Z,37.23
2019-01-22T20:49:43.842Z,35.70
2019-01-22T20:52:33.709Z,38.73
2019-01-22T20:55:23.645Z,37.67
2019-01-22T20:58:13.513Z,33.50
2019-01-22T21:00:44.087Z,37.88
2019-01-22T21:03:33.865Z,36.38
2019-01-22T21:06:23.734Z,35.15
2019-01-22T21:09:13.511Z,36.03
2019-01-22T21:12:03.396Z,36.90
2019-01-22T21:14:53.179Z,39.08
2019-01-22T21:17:43.024Z,35.00
2019-01-22T21:20:32.802Z,36.25
2019-01-22T21:23:22.608Z,38.28
2019-01-22T21:25:53.146Z,38.05
2019-01-22T21:28:42.964Z,37.60
2019-01-22T21:31:32.722Z,35.50
2019-01-22T21:34:22.545Z,35.23
2019-01-22T21:37:12.314Z,37.00
2019-01-22T21:40:02.125Z,35.05
2019-01-22T21:42:52.077Z,36.68
2019-01-22T21:45:41.928Z,36.03
2019-01-22T21:48:31.746Z,33.28
2019-01-22T21:51:21.562Z,31.05
2019-01-22T21:54:11.747Z,33.63
2019-01-22T21:59:52.659Z,30.70
2019-01-22T22:02:28.758Z,36.15
2019-01-22T22:08:24.414Z,35.60
2019-01-22T22:11:14.181Z,34.98
2019-01-22T22:14:03.990Z,35.45
2019-01-22T22:16:53.745Z,34.63
2019-01-22T22:19:43.604Z,36.28
2019-01-22T22:22:33.393Z,35.48
2019-01-22T22:28:26.377Z,38.33
2019-01-22T22:31:16.236Z,37.10
2019-01-22T22:33:46.695Z,36.45
2019-01-22T22:36:36.476Z,35.17
2019-01-22T22:39:11.404Z,36.05
2019-01-22T22:42:01.238Z,34.18
2019-01-22T22:44:51.010Z,34.85
2019-01-22T22:47:21.414Z,33.78
2019-01-22T22:50:14.586Z,35.52
2019-01-22T22:53:04.390Z,33.88
2019-01-22T22:55:34.880Z,32.98
2019-01-22T22:58:05.406Z,32.08
2019-01-22T23:01:14.195Z,33.50
2019-01-22T23:04:04.119Z,31.33
2019-01-22T23:06:53.952Z,33.00
2019-01-22T23:09:43.842Z,35.10
2019-01-22T23:12:34.036Z,34.60
2019-01-22T23:15:23.839Z,33.53
2019-01-22T23:18:13.749Z,32.90
2019-01-22T23:21:03.562Z,32.67
2019-01-22T23:23:53.379Z,33.38
2019-01-22T23:26:43.180Z,30.08
2019-01-22T23:29:32.997Z,33.10
2019-01-22T23:32:22.801Z,29.85
2019-01-22T23:38:14.748Z,33.73
2019-01-22T23:41:04.544Z,31.55
2019-01-22T23:43:54.309Z,31.25
2019-01-22T23:46:44.071Z,32.70
2019-01-22T23:49:33.924Z,33.28
2019-01-22T23:52:23.682Z,33.30
2019-01-22T23:55:13.662Z,34.38
2019-01-22T23:58:03.439Z,35.35
